createdAt,value
2023-01-18T00:01:49.484Z,13.45
2023-01-18T00:04:15.934Z,13.41
2023-01-18T00:06:42.179Z,13.33
2023-01-18T00:09:11.220Z,13.28
2023-01-18T00:11:37.586Z,13.22
2023-01-18T00:14:04.053Z,13.16
2023-01-18T00:16:30.350Z,13.11
2023-01-18T00:18:56.721Z,13.05
2023-01-18T00:21:23.103Z,12.98
2023-01-18T00:23:49.412Z,12.93
2023-01-18T00:26:15.756Z,12.88
2023-01-18T00:28:42.197Z,12.82
2023-01-18T00:31:09.095Z,12.78
2023-01-18T00:33:35.387Z,12.72
2023-01-18T00:36:02.020Z,12.65
2023-01-18T00:38:29.350Z,12.59
2023-01-18T00:40:55.874Z,12.54
2023-01-18T00:43:22.661Z,12.48
2023-01-18T00:45:49.026Z,12.43
2023-01-18T00:48:15.382Z,12.37
2023-01-18T00:50:44.833Z,12.32
2023-01-18T00:53:11.168Z,12.28
2023-01-18T00:55:37.843Z,12.24
2023-01-18T00:58:04.169Z,12.19
2023-01-18T01:00:30.724Z,12.15
2023-01-18T01:02:57.388Z,12.11
2023-01-18T01:05:23.956Z,12.07
2023-01-18T01:07:51.059Z,12.03
2023-01-18T01:10:17.320Z,11.97
2023-01-18T01:12:46.648Z,11.92
2023-01-18T01:15:12.941Z,11.90
2023-01-18T01:17:39.272Z,11.85
2023-01-18T01:20:06.292Z,11.82
2023-01-18T01:22:33.091Z,11.77
2023-01-18T01:24:59.616Z,11.73
2023-01-18T01:27:25.906Z,11.68
2023-01-18T01:29:52.230Z,11.63
2023-01-18T01:32:18.512Z,11.59
2023-01-18T01:34:44.865Z,11.55
2023-01-18T01:37:11.154Z,11.50
2023-01-18T01:39:37.460Z,11.47
2023-01-18T01:42:04.133Z,11.42
2023-01-18T01:44:33.197Z,11.40
2023-01-18T01:46:59.489Z,11.34
2023-01-18T01:49:25.782Z,11.31
2023-01-18T01:51:52.103Z,11.28
2023-01-18T01:54:19.198Z,11.25
2023-01-18T01:56:45.497Z,11.23
2023-01-18T01:59:11.812Z,11.21
2023-01-18T02:01:38.160Z,11.18
2023-01-18T02:04:05.223Z,11.14
2023-01-18T02:06:31.693Z,11.12
2023-01-18T02:08:57.978Z,11.08
2023-01-18T02:11:25.112Z,11.07
2023-01-18T02:13:51.367Z,11.05
2023-01-18T02:16:18.213Z,11.02
2023-01-18T02:18:44.658Z,11.00
2023-01-18T02:21:10.973Z,10.97
2023-01-18T02:23:38.192Z,10.94
2023-01-18T02:26:04.496Z,10.91
2023-01-18T02:28:32.210Z,10.88
2023-01-18T02:30:58.627Z,10.85
2023-01-18T02:33:25.175Z,10.83
2023-01-18T02:35:51.455Z,10.79
2023-01-18T02:38:17.727Z,10.76
2023-01-18T02:40:44.128Z,10.73
2023-01-18T02:43:11.257Z,10.71
2023-01-18T02:45:37.537Z,10.69
2023-01-18T02:48:03.921Z,10.65
2023-01-18T02:50:31.885Z,10.62
2023-01-18T02:55:48.371Z,10.57
2023-01-18T02:58:15.083Z,10.54
2023-01-18T03:00:41.751Z,10.50
2023-01-18T03:03:08.153Z,10.47
2023-01-18T03:05:34.452Z,10.44
2023-01-18T03:08:00.758Z,10.43
2023-01-18T03:10:27.019Z,10.41
2023-01-18T03:12:54.267Z,10.39
2023-01-18T03:15:20.605Z,10.35
2023-01-18T03:17:46.931Z,10.32
2023-01-18T03:20:13.664Z,10.28
2023-01-18T03:22:39.955Z,10.26
2023-01-18T03:25:06.808Z,10.23
2023-01-18T03:27:33.754Z,10.19
2023-01-18T03:30:00.084Z,10.16
2023-01-18T03:32:26.416Z,10.13
2023-01-18T03:34:53.738Z,10.11
2023-01-18T03:37:20.091Z,10.09
2023-01-18T03:39:47.182Z,10.07
2023-01-18T03:42:13.728Z,10.04
2023-01-18T03:44:40.021Z,10.02
2023-01-18T03:47:06.650Z,10.00
2023-01-18T03:49:32.956Z,9.98
2023-01-18T03:51:59.283Z,9.95
2023-01-18T03:54:25.602Z,9.92
2023-01-18T03:56:51.954Z,9.89
2023-01-18T03:59:18.731Z,9.86
2023-01-18T04:01:45.129Z,9.84
2023-01-18T04:04:11.465Z,9.82
2023-01-18T04:06:37.783Z,9.82
2023-01-18T04:09:04.065Z,9.80
2023-01-18T04:11:31.129Z,9.78
2023-01-18T04:14:00.459Z,9.75
2023-01-18T04:16:26.917Z,9.72
2023-01-18T04:18:53.479Z,9.71
2023-01-18T04:21:19.797Z,9.68
2023-01-18T04:23:46.141Z,9.65
2023-01-18T04:26:12.711Z,9.63
2023-01-18T04:28:39.020Z,9.60
2023-01-18T04:31:05.911Z,9.58
2023-01-18T04:33:32.280Z,9.55
2023-01-18T04:35:59.464Z,9.52
2023-01-18T04:38:25.859Z,9.49
2023-01-18T04:40:52.181Z,9.47
2023-01-18T04:43:18.508Z,9.43
2023-01-18T04:45:45.136Z,9.41
2023-01-18T04:48:11.700Z,9.38
2023-01-18T04:50:41.432Z,9.35
2023-01-18T04:53:07.841Z,9.33
2023-01-18T04:55:34.176Z,9.29
2023-01-18T04:58:00.440Z,9.27
2023-01-18T05:00:27.751Z,9.23
2023-01-18T05:02:54.179Z,9.22
2023-01-18T05:05:20.492Z,9.20
2023-01-18T05:07:46.828Z,9.18
2023-01-18T05:10:13.084Z,9.16
2023-01-18T05:12:39.440Z,9.13
2023-01-18T05:15:06.311Z,9.12
2023-01-18T05:17:32.674Z,9.09
2023-01-18T05:19:59.696Z,9.07
2023-01-18T05:22:26.038Z,9.06
2023-01-18T05:24:52.345Z,9.06
2023-01-18T05:27:18.714Z,9.03
2023-01-18T05:29:45.865Z,9.07
2023-01-18T05:32:12.235Z,9.38
2023-01-18T05:34:39.280Z,9.50
2023-01-18T05:37:05.551Z,9.47
2023-01-18T05:39:32.908Z,9.39
2023-01-18T05:42:00.245Z,9.31
2023-01-18T05:44:26.674Z,9.24
2023-01-18T05:46:53.858Z,9.18
2023-01-18T05:49:20.151Z,9.13
2023-01-18T05:51:47.159Z,9.10
2023-01-18T05:54:13.467Z,9.07
2023-01-18T05:56:39.732Z,9.05
2023-01-18T05:59:06.065Z,9.02
2023-01-18T06:01:36.340Z,8.98
2023-01-18T06:04:03.448Z,8.94
2023-01-18T06:06:30.001Z,8.92
2023-01-18T06:08:56.509Z,8.89
2023-01-18T06:11:23.347Z,8.85
2023-01-18T06:13:49.653Z,8.83
2023-01-18T06:16:16.007Z,8.80
2023-01-18T06:18:42.273Z,8.78
2023-01-18T06:21:08.607Z,8.75
2023-01-18T06:23:35.020Z,8.73
2023-01-18T06:26:01.819Z,8.70
2023-01-18T06:28:30.626Z,8.68
2023-01-18T06:30:57.839Z,8.65
2023-01-18T06:33:24.125Z,8.64
2023-01-18T06:35:50.419Z,8.62
2023-01-18T06:38:16.828Z,8.61
2023-01-18T06:40:44.065Z,8.59
2023-01-18T06:43:10.444Z,8.57
2023-01-18T06:48:20.615Z,8.53
2023-01-18T06:50:50.428Z,8.50
2023-01-18T06:53:16.806Z,8.49
2023-01-18T06:55:43.133Z,8.46
2023-01-18T06:58:10.459Z,8.43
2023-01-18T07:00:37.239Z,8.40
2023-01-18T07:03:03.821Z,8.39
2023-01-18T07:05:30.174Z,8.38
2023-01-18T07:07:56.975Z,8.39
2023-01-18T07:10:23.371Z,8.46
2023-01-18T07:12:50.196Z,8.95
2023-01-18T07:15:21.959Z,9.59
2023-01-18T07:17:49.106Z,10.15
2023-01-18T07:20:15.789Z,10.63
2023-01-18T07:22:42.048Z,10.98
2023-01-18T07:25:08.421Z,11.24
2023-01-18T07:27:34.724Z,11.48
2023-01-18T07:30:00.981Z,11.69
2023-01-18T07:32:27.952Z,11.87
2023-01-18T07:34:54.224Z,12.03
2023-01-18T07:37:20.570Z,12.17
2023-01-18T07:39:46.847Z,12.35
2023-01-18T07:42:13.136Z,12.56
2023-01-18T07:44:39.530Z,12.73
2023-01-18T07:47:05.857Z,12.96
2023-01-18T07:49:32.531Z,13.16
2023-01-18T07:51:58.839Z,13.33
2023-01-18T07:54:28.030Z,13.49
2023-01-18T07:56:54.554Z,13.63
2023-01-18T07:59:21.347Z,13.76
2023-01-18T08:01:47.739Z,13.87
2023-01-18T08:04:14.098Z,13.97
2023-01-18T08:06:40.405Z,14.08
2023-01-18T08:09:06.788Z,14.20
2023-01-18T08:11:33.892Z,14.33
2023-01-18T08:14:00.634Z,14.46
2023-01-18T08:16:26.945Z,14.57
2023-01-18T08:18:53.494Z,14.70
2023-01-18T08:21:19.891Z,14.84
2023-01-18T08:23:46.286Z,14.97
2023-01-18T08:26:13.492Z,15.10
2023-01-18T08:28:39.743Z,15.20
2023-01-18T08:31:10.778Z,15.30
2023-01-18T08:33:39.155Z,15.41
2023-01-18T08:36:05.845Z,15.53
2023-01-18T08:38:32.120Z,15.63
2023-01-18T08:40:58.393Z,15.74
2023-01-18T08:43:24.632Z,15.85
2023-01-18T08:45:50.924Z,15.94
2023-01-18T08:48:17.281Z,16.05
2023-01-18T08:50:43.679Z,16.13
2023-01-18T08:53:09.981Z,16.23
2023-01-18T08:55:36.293Z,16.30
2023-01-18T08:58:02.781Z,16.39
2023-01-18T09:00:29.103Z,16.47
2023-01-18T09:02:55.507Z,16.51
2023-01-18T09:05:22.955Z,16.53
2023-01-18T09:07:50.342Z,16.55
2023-01-18T09:10:16.603Z,16.60
2023-01-18T09:12:44.099Z,16.67
2023-01-18T09:15:11.361Z,16.72
2023-01-18T09:17:37.712Z,16.78
2023-01-18T09:20:04.150Z,16.86
2023-01-18T09:22:30.410Z,16.96
2023-01-18T09:24:56.685Z,17.05
2023-01-18T09:27:23.008Z,17.16
2023-01-18T09:29:49.997Z,17.22
2023-01-18T09:32:16.311Z,17.27
2023-01-18T09:34:42.594Z,17.32
2023-01-18T09:37:08.853Z,17.35
2023-01-18T09:39:46.666Z,17.37
2023-01-18T09:42:17.609Z,17.39
2023-01-18T09:44:43.866Z,17.40
2023-01-18T09:47:12.998Z,17.37
2023-01-18T09:49:39.291Z,17.31
2023-01-18T09:52:05.665Z,17.32
2023-01-18T09:54:31.962Z,17.36
2023-01-18T09:56:58.264Z,17.35
2023-01-18T09:59:25.355Z,17.32
2023-01-18T10:01:53.271Z,17.28
2023-01-18T10:04:21.401Z,17.25
2023-01-18T10:06:47.784Z,17.28
2023-01-18T10:09:14.225Z,17.27
2023-01-18T10:11:40.514Z,17.25
2023-01-18T10:14:06.769Z,17.23
2023-01-18T10:16:33.371Z,17.22
2023-01-18T10:19:00.271Z,17.20
2023-01-18T10:21:26.590Z,17.20
2023-01-18T10:23:52.917Z,17.20
2023-01-18T10:26:19.252Z,17.19
2023-01-18T10:28:45.936Z,17.20
2023-01-18T10:31:12.450Z,17.19
2023-01-18T10:33:38.880Z,17.19
2023-01-18T10:36:05.115Z,17.21
2023-01-18T10:38:31.467Z,17.21
2023-01-18T10:40:57.801Z,17.23
2023-01-18T10:43:24.699Z,17.31
2023-01-18T10:45:51.093Z,17.43
2023-01-18T10:48:17.487Z,17.54
2023-01-18T10:50:43.835Z,17.69
2023-01-18T10:53:10.162Z,17.83
2023-01-18T10:55:36.457Z,17.99
2023-01-18T10:58:02.760Z,18.14
2023-01-18T11:00:29.032Z,18.28
2023-01-18T11:02:55.390Z,18.40
2023-01-18T11:05:22.377Z,18.51
2023-01-18T11:07:48.661Z,18.62
2023-01-18T11:10:14.961Z,18.72
2023-01-18T11:12:41.315Z,18.77
2023-01-18T11:15:07.674Z,18.82
2023-01-18T11:17:34.001Z,18.83
2023-01-18T11:20:00.386Z,18.82
2023-01-18T11:22:26.644Z,18.84
2023-01-18T11:24:53.305Z,18.87
2023-01-18T11:27:21.770Z,18.86
2023-01-18T11:29:48.078Z,18.87
2023-01-18T11:32:14.359Z,18.87
2023-01-18T11:34:40.832Z,18.87
2023-01-18T11:37:07.879Z,18.85
2023-01-18T11:39:34.199Z,18.85
2023-01-18T11:42:00.783Z,18.87
2023-01-18T11:44:27.103Z,18.90
2023-01-18T11:46:53.715Z,18.92
2023-01-18T11:49:20.300Z,18.92
2023-01-18T11:51:46.573Z,18.90
2023-01-18T11:54:12.801Z,18.89
2023-01-18T11:56:39.849Z,18.87
2023-01-18T11:59:06.251Z,18.83
2023-01-18T12:01:33.672Z,18.83
2023-01-18T12:04:00.061Z,18.81
2023-01-18T12:06:26.434Z,18.80
2023-01-18T12:08:56.800Z,18.79
2023-01-18T12:11:23.666Z,18.78
2023-01-18T12:13:50.296Z,18.76
2023-01-18T12:16:16.733Z,18.76
2023-01-18T12:18:43.710Z,18.74
2023-01-18T12:21:09.985Z,18.71
2023-01-18T12:23:36.428Z,18.70
2023-01-18T12:26:12.313Z,18.67
2023-01-18T12:28:39.055Z,18.62
2023-01-18T12:31:05.430Z,18.60
2023-01-18T12:33:43.106Z,18.57
2023-01-18T12:36:10.147Z,18.55
2023-01-18T12:38:36.457Z,18.54
2023-01-18T12:43:47.521Z,18.51
2023-01-18T12:46:13.843Z,18.49
2023-01-18T12:48:40.213Z,18.47
2023-01-18T12:51:07.621Z,18.47
2023-01-18T12:53:34.116Z,18.46
2023-01-18T12:56:01.548Z,18.44
2023-01-18T12:58:29.481Z,18.43
2023-01-18T13:00:55.831Z,18.42
2023-01-18T13:03:24.958Z,18.41
2023-01-18T13:05:51.413Z,18.38
2023-01-18T13:08:17.828Z,18.36
2023-01-18T13:10:44.102Z,18.36
2023-01-18T13:13:14.431Z,18.29
2023-01-18T13:15:40.800Z,18.39
2023-01-18T13:18:07.215Z,18.42
2023-01-18T13:20:33.530Z,18.44
2023-01-18T13:22:59.960Z,18.44
2023-01-18T13:25:26.265Z,18.43
2023-01-18T13:27:52.662Z,18.42
2023-01-18T13:30:18.941Z,18.42
2023-01-18T13:32:45.215Z,18.41
2023-01-18T13:35:20.178Z,18.39
2023-01-18T13:37:47.099Z,18.37
2023-01-18T13:40:13.400Z,18.31
2023-01-18T13:42:39.804Z,18.27
2023-01-18T13:45:06.452Z,18.25
2023-01-18T13:47:34.324Z,18.23
2023-01-18T13:50:00.814Z,18.22
2023-01-18T13:52:27.310Z,18.21
2023-01-18T13:54:53.653Z,18.22
2023-01-18T13:57:19.937Z,18.21
2023-01-18T13:59:46.210Z,18.21
2023-01-18T14:02:16.784Z,18.22
2023-01-18T14:04:43.105Z,18.23
2023-01-18T14:07:09.437Z,18.27
2023-01-18T14:09:37.910Z,18.37
2023-01-18T14:12:04.333Z,18.48
2023-01-18T14:14:30.618Z,18.62
2023-01-18T14:16:56.904Z,18.78
2023-01-18T14:19:23.168Z,18.89
2023-01-18T14:21:49.448Z,18.98
2023-01-18T14:24:15.732Z,19.02
2023-01-18T14:26:42.950Z,19.07
2023-01-18T14:29:09.239Z,19.11
2023-01-18T14:31:36.459Z,19.09
2023-01-18T14:34:02.822Z,19.08
2023-01-18T14:36:29.097Z,19.04
2023-01-18T14:38:55.526Z,19.00
2023-01-18T14:41:24.689Z,18.95
2023-01-18T14:43:50.994Z,18.90
2023-01-18T14:46:17.401Z,18.85
2023-01-18T14:48:43.698Z,18.79
2023-01-18T14:51:10.983Z,18.74
2023-01-18T14:53:37.363Z,18.71
2023-01-18T14:56:03.697Z,18.69
2023-01-18T14:58:32.149Z,18.67
2023-01-18T15:00:59.188Z,18.63
2023-01-18T15:03:25.916Z,18.59
2023-01-18T15:05:52.373Z,18.53
2023-01-18T15:08:18.612Z,18.50
2023-01-18T15:10:45.921Z,18.46
2023-01-18T15:13:12.368Z,18.42
2023-01-18T15:15:39.589Z,18.38
2023-01-18T15:18:05.858Z,18.34
2023-01-18T15:20:32.168Z,18.28
2023-01-18T15:22:59.704Z,18.23
2023-01-18T15:25:26.876Z,18.19
2023-01-18T15:27:53.173Z,18.13
2023-01-18T15:30:19.459Z,18.09
2023-01-18T15:32:46.128Z,18.04
2023-01-18T15:35:12.783Z,17.99
2023-01-18T15:37:39.048Z,17.95
2023-01-18T15:40:05.356Z,17.89
2023-01-18T15:42:31.799Z,17.85
2023-01-18T15:45:01.104Z,17.80
2023-01-18T15:47:27.394Z,17.77
2023-01-18T15:49:53.790Z,17.73
2023-01-18T15:52:20.137Z,17.68
2023-01-18T15:54:46.711Z,17.65
2023-01-18T15:57:13.054Z,17.62
2023-01-18T15:59:39.791Z,17.58
2023-01-18T16:02:06.695Z,17.55
2023-01-18T16:04:33.108Z,17.52
2023-01-18T16:06:59.887Z,17.49
2023-01-18T16:09:26.226Z,17.47
2023-01-18T16:11:52.517Z,17.46
2023-01-18T16:14:18.853Z,17.46
2023-01-18T16:16:45.202Z,17.47
2023-01-18T16:19:11.831Z,17.49
2023-01-18T16:21:38.085Z,17.55
2023-01-18T16:24:04.509Z,17.61
2023-01-18T16:26:31.175Z,17.69
2023-01-18T16:28:57.452Z,17.81
2023-01-18T16:31:23.743Z,17.96
2023-01-18T16:33:50.085Z,18.10
2023-01-18T16:36:16.768Z,18.17
2023-01-18T16:38:43.694Z,18.25
2023-01-18T16:41:09.929Z,18.31
2023-01-18T16:43:36.219Z,18.32
2023-01-18T16:46:02.626Z,18.32
2023-01-18T16:48:28.981Z,18.29
2023-01-18T16:50:58.279Z,18.25
2023-01-18T16:53:24.530Z,18.21
2023-01-18T16:55:51.388Z,18.16
2023-01-18T16:58:17.709Z,18.14
2023-01-18T17:00:44.461Z,18.14
2023-01-18T17:03:14.447Z,18.14
2023-01-18T17:05:41.686Z,18.13
2023-01-18T17:08:08.826Z,18.11
2023-01-18T17:10:35.066Z,18.07
2023-01-18T17:13:01.924Z,18.03
2023-01-18T17:15:28.798Z,18.00
2023-01-18T17:17:55.073Z,17.97
2023-01-18T17:20:21.310Z,17.93
2023-01-18T17:22:50.601Z,17.91
2023-01-18T17:25:16.966Z,17.88
2023-01-18T17:27:43.927Z,17.86
2023-01-18T17:30:10.369Z,17.85
2023-01-18T17:32:39.149Z,17.81
2023-01-18T17:35:05.465Z,17.81
2023-01-18T17:37:33.621Z,17.78
2023-01-18T17:40:14.203Z,17.77
2023-01-18T17:42:43.799Z,17.74
2023-01-18T17:45:10.108Z,17.73
2023-01-18T17:47:36.509Z,17.72
2023-01-18T17:50:03.421Z,17.71
2023-01-18T17:52:29.775Z,17.71
2023-01-18T17:54:56.317Z,17.69
2023-01-18T17:57:22.853Z,17.68
2023-01-18T17:59:49.748Z,17.68
2023-01-18T18:02:16.425Z,17.67
2023-01-18T18:04:42.761Z,17.67
2023-01-18T18:07:09.023Z,17.68
2023-01-18T18:09:38.345Z,17.69
2023-01-18T18:12:04.766Z,17.66
2023-01-18T18:14:31.474Z,17.72
2023-01-18T18:17:00.132Z,17.79
2023-01-18T18:19:26.429Z,17.89
2023-01-18T18:21:55.829Z,18.01
2023-01-18T18:24:22.112Z,18.13
2023-01-18T18:26:48.956Z,18.22
2023-01-18T18:29:15.269Z,18.33
2023-01-18T18:31:44.502Z,18.41
2023-01-18T18:34:13.907Z,18.50
2023-01-18T18:36:40.231Z,18.59
2023-01-18T18:39:06.804Z,18.69
2023-01-18T18:41:33.359Z,18.77
2023-01-18T18:43:59.632Z,18.84
2023-01-18T18:46:26.897Z,18.91
2023-01-18T18:48:53.222Z,18.99
2023-01-18T18:51:19.625Z,19.07
2023-01-18T18:53:45.943Z,19.13
2023-01-18T18:56:12.296Z,19.18
2023-01-18T18:58:39.330Z,19.25
2023-01-18T19:01:05.900Z,19.32
2023-01-18T19:03:32.286Z,19.39
2023-01-18T19:05:58.739Z,19.45
2023-01-18T19:08:25.318Z,19.50
2023-01-18T19:10:51.883Z,19.48
2023-01-18T19:13:18.329Z,19.62
2023-01-18T19:15:45.331Z,19.65
2023-01-18T19:18:12.163Z,19.67
2023-01-18T19:20:38.815Z,19.66
2023-01-18T19:23:05.101Z,19.64
2023-01-18T19:25:31.394Z,19.61
2023-01-18T19:27:57.778Z,19.59
2023-01-18T19:30:24.212Z,19.57
2023-01-18T19:32:51.456Z,19.51
2023-01-18T19:35:18.313Z,19.44
2023-01-18T19:37:44.671Z,19.38
2023-01-18T19:40:11.198Z,19.34
2023-01-18T19:42:38.195Z,19.32
2023-01-18T19:45:05.009Z,19.30
2023-01-18T19:47:31.415Z,19.30
2023-01-18T19:49:57.767Z,19.27
2023-01-18T19:52:24.041Z,19.21
2023-01-18T19:54:50.377Z,19.14
2023-01-18T19:57:17.008Z,19.08
2023-01-18T19:59:43.364Z,19.03
2023-01-18T20:02:09.862Z,18.98
2023-01-18T20:04:36.768Z,18.92
2023-01-18T20:07:03.228Z,18.85
2023-01-18T20:09:42.344Z,18.79
2023-01-18T20:12:09.614Z,18.72
2023-01-18T20:14:41.317Z,18.66
2023-01-18T20:17:08.366Z,18.60
2023-01-18T20:19:34.868Z,18.56
2023-01-18T20:22:01.164Z,18.51
2023-01-18T20:24:28.303Z,18.51
2023-01-18T20:26:57.679Z,18.45
2023-01-18T20:29:25.872Z,18.45
2023-01-18T20:31:52.537Z,18.48
2023-01-18T20:34:19.872Z,18.56
2023-01-18T20:36:46.125Z,18.66
2023-01-18T20:39:13.311Z,18.76
2023-01-18T20:41:39.570Z,18.83
2023-01-18T20:44:05.853Z,18.91
2023-01-18T20:46:32.124Z,19.00
2023-01-18T20:48:59.037Z,19.09
2023-01-18T20:51:26.232Z,19.19
2023-01-18T20:53:53.351Z,19.26
2023-01-18T20:56:34.602Z,19.33
2023-01-18T20:59:01.062Z,19.40
2023-01-18T21:01:31.107Z,19.45
2023-01-18T21:03:58.264Z,19.47
2023-01-18T21:06:24.709Z,19.48
2023-01-18T21:08:51.210Z,19.48
2023-01-18T21:11:18.154Z,19.46
2023-01-18T21:13:44.459Z,19.45
2023-01-18T21:16:10.843Z,19.44
2023-01-18T21:18:37.523Z,19.41
2023-01-18T21:21:03.897Z,19.36
2023-01-18T21:23:30.220Z,19.29
2023-01-18T21:25:56.601Z,19.24
2023-01-18T21:28:23.963Z,19.19
2023-01-18T21:30:50.893Z,19.16
2023-01-18T21:33:17.219Z,19.13
2023-01-18T21:35:43.596Z,19.10
2023-01-18T21:38:09.982Z,19.07
2023-01-18T21:40:36.496Z,19.04
2023-01-18T21:43:03.020Z,18.98
2023-01-18T21:45:29.392Z,18.91
2023-01-18T21:47:55.754Z,18.83
2023-01-18T21:50:22.202Z,18.78
2023-01-18T21:52:49.117Z,18.68
2023-01-18T21:55:16.430Z,18.50
2023-01-18T21:57:42.948Z,18.27
2023-01-18T22:00:09.287Z,18.08
2023-01-18T22:02:35.682Z,17.91
2023-01-18T22:05:07.908Z,17.76
2023-01-18T22:07:34.290Z,17.62
2023-01-18T22:10:06.041Z,17.47
2023-01-18T22:12:33.569Z,17.34
2023-01-18T22:15:00.211Z,17.20
2023-01-18T22:17:26.577Z,17.06
2023-01-18T22:19:53.353Z,16.93
2023-01-18T22:22:19.819Z,16.79
2023-01-18T22:24:46.214Z,16.67
2023-01-18T22:27:12.431Z,16.54
2023-01-18T22:29:38.659Z,16.43
2023-01-18T22:32:05.116Z,16.31
2023-01-18T22:34:31.427Z,16.21
2023-01-18T22:36:57.886Z,16.10
2023-01-18T22:39:24.588Z,15.97
2023-01-18T22:41:52.329Z,15.86
2023-01-18T22:44:18.633Z,15.76
2023-01-18T22:46:44.907Z,15.65
2023-01-18T22:49:11.265Z,15.55
2023-01-18T22:51:38.320Z,15.45
2023-01-18T22:54:05.361Z,15.36
2023-01-18T22:56:31.813Z,15.26
2023-01-18T22:58:58.680Z,15.18
2023-01-18T23:01:28.275Z,15.09
2023-01-18T23:03:54.879Z,15.01
2023-01-18T23:06:21.259Z,14.93
2023-01-18T23:08:48.447Z,14.84
2023-01-18T23:11:14.727Z,14.76
2023-01-18T23:13:41.075Z,14.66
2023-01-18T23:16:07.788Z,14.57
2023-01-18T23:18:34.073Z,14.49
2023-01-18T23:21:01.606Z,14.41
2023-01-18T23:23:28.780Z,14.33
2023-01-18T23:25:55.987Z,14.19
2023-01-18T23:28:22.259Z,14.17
2023-01-18T23:30:48.684Z,14.10
2023-01-18T23:33:15.856Z,14.03
2023-01-18T23:35:42.108Z,13.95
2023-01-18T23:38:08.746Z,13.87
2023-01-18T23:40:35.037Z,13.81
2023-01-18T23:43:01.306Z,13.74
2023-01-18T23:45:29.083Z,13.67
2023-01-18T23:47:55.988Z,13.61
2023-01-18T23:50:22.274Z,13.53
2023-01-18T23:52:48.558Z,13.47
2023-01-18T23:55:16.010Z,13.40
2023-01-18T23:57:42.307Z,13.34
